This is the latest recevied weather packets stored in our database for station/object OE3BCB-14. If no packets are shown the sender has not sent any weather packets the latest 10 day(s).
| Time | Temp. | Humidity | Pressure | Rain* | Wind** | Luminosity | Snow |
|---|---|---|---|---|---|---|---|
| 1778007226 | 21.67° C | 29% | 1005.5 hPa | - | - | 0 W/m² | - |
| 1778006924 | 22.22° C | 28% | 1005.4 hPa | - | - | 0 W/m² | - |
| 1778006621 | 22.78° C | 28% | 1005.4 hPa | - | - | 0 W/m² | - |
| 1778006017 | 23.33° C | 27% | 1005.3 hPa | - | - | 0 W/m² | - |
| 1778005714 | 23.33° C | 26% | 1005.2 hPa | - | - | 0 W/m² | - |
| 1778005412 | 23.89° C | 26% | 1005.2 hPa | - | - | 0 W/m² | - |
| 1778005109 | 23.89° C | 25% | 1005.2 hPa | - | - | 0 W/m² | - |
| 1778004807 | 24.44° C | 25% | 1005.1 hPa | - | - | 1 W/m² | - |
| 1778004504 | 24.44° C | 24% | 1005.2 hPa | - | - | 1 W/m² | - |
| 1778004202 | 25° C | 24% | 1005.2 hPa | - | - | 2 W/m² | - |
| 1778003900 | 25.56° C | 23% | 1005.2 hPa | - | - | 3 W/m² | - |
| 1778003597 | 26.11° C | 23% | 1005.2 hPa | - | - | 5 W/m² | - |
| 1778003295 | 27.22° C | 22% | 1005.2 hPa | - | - | 7 W/m² | - |
| 1778002992 | 27.78° C | 22% | 1005.2 hPa | - | - | 10 W/m² | - |
| 1778002690 | 28.89° C | 21% | 1005.2 hPa | - | - | 12 W/m² | - |
| 1778002388 | 30° C | 21% | 1005.2 hPa | - | - | 14 W/m² | - |
| 1778002085 | 31.11° C | 21% | 1005.2 hPa | - | - | 20 W/m² | - |
| 1778001783 | 31.11° C | 20% | 1005.2 hPa | - | - | 25 W/m² | - |
| 1778001480 | 31.67° C | 20% | 1005.1 hPa | - | - | 28 W/m² | - |
| 1778001178 | 31.11° C | 20% | 1005.1 hPa | - | - | 30 W/m² | - |
| 1778000876 | 30.56° C | 20% | 1005.1 hPa | - | - | 27 W/m² | - |
| 1778000573 | 30.56° C | 19% | 1005.1 hPa | - | - | 17 W/m² | - |
| 1777999968 | 35° C | 18% | 1005.2 hPa | - | - | 40 W/m² | - |
| 1777999666 | 36.11° C | 17% | 1005.2 hPa | - | - | 53 W/m² | - |
| 1777999363 | 36.67° C | 18% | 1005.3 hPa | - | - | 69 W/m² | - |
* Rain since midnight (hover to see other rain measurements)
** Current wind speed in m/s (hover to see current wind gust speed)